createdAt,value
2017-06-18T00:00:37.777Z,91.80
2017-06-18T00:03:05.738Z,91.90
2017-06-18T00:05:33.255Z,92.00
2017-06-18T00:08:00.794Z,92.00
2017-06-18T00:10:28.338Z,92.00
2017-06-18T00:12:55.870Z,92.00
2017-06-18T00:15:23.400Z,91.90
2017-06-18T00:17:50.953Z,92.00
2017-06-18T00:20:18.484Z,92.20
2017-06-18T00:22:46.002Z,92.50
2017-06-18T00:25:13.768Z,92.20
2017-06-18T00:27:41.294Z,92.70
2017-06-18T00:30:08.822Z,92.60
2017-06-18T00:32:36.392Z,92.50
2017-06-18T00:35:04.688Z,92.30
2017-06-18T00:37:32.234Z,92.20
2017-06-18T00:39:59.789Z,92.50
2017-06-18T00:42:28.068Z,92.90
2017-06-18T00:44:56.364Z,93.10
2017-06-18T00:47:24.215Z,93.10
2017-06-18T00:49:51.758Z,93.30
2017-06-18T00:52:19.287Z,93.30
2017-06-18T00:54:46.835Z,93.20
2017-06-18T00:57:14.354Z,93.20
2017-06-18T00:59:41.889Z,93.30
2017-06-18T01:02:09.456Z,93.30
2017-06-18T01:04:36.979Z,93.70
2017-06-18T01:07:04.505Z,93.80
2017-06-18T01:09:32.352Z,93.70
2017-06-18T01:11:59.869Z,93.70
2017-06-18T01:14:27.394Z,93.90
2017-06-18T01:16:54.942Z,93.90
2017-06-18T01:19:22.464Z,93.80
2017-06-18T01:21:50.002Z,94.00
2017-06-18T01:24:17.753Z,94.10
2017-06-18T01:26:45.289Z,94.10
2017-06-18T01:29:12.807Z,94.20
2017-06-18T01:31:40.385Z,94.40
2017-06-18T01:34:07.917Z,94.40
2017-06-18T01:36:35.438Z,94.40
2017-06-18T01:39:02.997Z,94.50
2017-06-18T01:41:30.549Z,94.60
2017-06-18T01:43:58.073Z,94.70
2017-06-18T01:46:25.639Z,94.70
2017-06-18T01:48:53.174Z,94.70
2017-06-18T01:51:20.691Z,94.70
2017-06-18T01:53:48.242Z,94.60
2017-06-18T01:56:15.758Z,94.70
2017-06-18T01:58:43.298Z,94.70
2017-06-18T02:01:10.848Z,94.70
2017-06-18T02:03:38.370Z,94.70
2017-06-18T02:06:05.887Z,94.80
2017-06-18T02:08:33.777Z,94.80
2017-06-18T02:11:02.065Z,94.70
2017-06-18T02:13:29.597Z,94.60
2017-06-18T02:15:57.164Z,94.70
2017-06-18T02:18:25.781Z,94.60
2017-06-18T02:20:53.334Z,94.60
2017-06-18T02:23:21.237Z,94.60
2017-06-18T02:25:48.771Z,94.50
2017-06-18T02:28:16.308Z,95.10
2017-06-18T02:30:43.852Z,95.00
2017-06-18T02:33:11.381Z,95.20
2017-06-18T02:35:38.918Z,95.40
2017-06-18T02:38:06.482Z,95.40
2017-06-18T02:40:34.029Z,95.20
2017-06-18T02:43:01.546Z,95.20
2017-06-18T02:45:29.092Z,95.10
2017-06-18T02:47:56.621Z,95.00
2017-06-18T02:50:24.153Z,95.00
2017-06-18T02:52:51.697Z,95.00
2017-06-18T02:55:19.226Z,94.90
2017-06-18T02:57:46.776Z,94.80
2017-06-18T03:00:14.333Z,94.80
2017-06-18T03:02:41.864Z,94.70
2017-06-18T03:05:09.379Z,94.90
2017-06-18T03:07:36.944Z,95.00
2017-06-18T03:10:16.314Z,94.90
2017-06-18T03:12:43.859Z,94.90
2017-06-18T03:15:11.391Z,94.70
2017-06-18T03:17:38.906Z,94.90
2017-06-18T03:20:06.468Z,94.70
2017-06-18T03:22:33.993Z,94.70
2017-06-18T03:25:01.517Z,94.80
2017-06-18T03:27:29.076Z,94.70
2017-06-18T03:29:56.617Z,94.90
2017-06-18T03:32:24.147Z,94.90
2017-06-18T03:34:51.693Z,95.00
2017-06-18T03:37:19.215Z,95.20
2017-06-18T03:39:47.504Z,95.20
2017-06-18T03:42:15.372Z,95.20
2017-06-18T03:44:42.896Z,95.30
2017-06-18T03:47:10.431Z,95.40
2017-06-18T03:49:37.992Z,95.40
2017-06-18T03:52:05.528Z,95.30
2017-06-18T03:54:33.047Z,95.20
2017-06-18T03:57:01.744Z,95.00
2017-06-18T03:59:30.044Z,94.80
2017-06-18T04:01:57.568Z,94.80
2017-06-18T04:04:25.123Z,94.80
2017-06-18T04:06:53.412Z,94.50
2017-06-18T04:09:20.951Z,94.50
2017-06-18T04:11:48.504Z,94.40
2017-06-18T04:14:16.740Z,94.40
2017-06-18T04:16:44.266Z,94.10
2017-06-18T04:19:12.584Z,94.00
2017-06-18T04:21:40.107Z,94.00
2017-06-18T04:24:07.634Z,94.00
2017-06-18T04:26:35.553Z,94.00
2017-06-18T04:29:03.089Z,94.10
2017-06-18T04:31:30.614Z,94.10
2017-06-18T04:33:58.181Z,94.00
2017-06-18T04:36:25.709Z,93.80
2017-06-18T04:38:53.231Z,93.60
2017-06-18T04:41:20.790Z,93.70
2017-06-18T04:43:48.312Z,93.90
2017-06-18T04:46:15.842Z,94.00
2017-06-18T04:48:43.868Z,94.20
2017-06-18T04:51:12.164Z,94.10
2017-06-18T04:53:39.687Z,94.00
2017-06-18T04:56:07.244Z,93.90
2017-06-18T04:58:35.541Z,93.70
2017-06-18T05:01:03.839Z,94.20
2017-06-18T05:03:31.407Z,94.20
2017-06-18T05:05:58.957Z,94.20
2017-06-18T05:08:26.491Z,94.20
2017-06-18T05:10:54.055Z,94.20
2017-06-18T05:13:21.588Z,94.00
2017-06-18T05:15:49.128Z,93.80
2017-06-18T05:18:16.716Z,93.40
2017-06-18T05:20:44.258Z,93.40
2017-06-18T05:23:11.799Z,93.50
2017-06-18T05:25:39.374Z,93.60
2017-06-18T05:28:06.915Z,93.80
2017-06-18T05:30:34.444Z,93.50
2017-06-18T05:33:02.008Z,93.30
2017-06-18T05:35:29.539Z,93.20
2017-06-18T05:37:57.075Z,93.10
2017-06-18T05:40:24.646Z,93.00
2017-06-18T05:42:52.188Z,93.20
2017-06-18T05:45:19.701Z,93.20
2017-06-18T05:47:47.251Z,93.20
2017-06-18T05:50:14.777Z,93.10
2017-06-18T05:52:42.320Z,93.10
2017-06-18T05:55:09.880Z,93.00
2017-06-18T05:57:37.430Z,93.00
2017-06-18T06:00:04.950Z,92.90
2017-06-18T06:02:32.531Z,92.90
2017-06-18T06:05:00.051Z,93.10
2017-06-18T06:07:27.585Z,92.90
2017-06-18T06:09:55.130Z,93.20
2017-06-18T06:12:22.658Z,92.90
2017-06-18T06:14:50.182Z,92.80
2017-06-18T06:17:17.739Z,92.80
2017-06-18T06:19:45.252Z,92.70
2017-06-18T06:22:12.776Z,91.70
2017-06-18T06:24:40.338Z,91.80
2017-06-18T06:27:07.894Z,91.50
2017-06-18T06:29:36.340Z,91.70
2017-06-18T06:32:03.906Z,91.30
2017-06-18T06:34:31.442Z,91.00
2017-06-18T06:36:58.988Z,90.90
2017-06-18T06:39:26.559Z,90.60
2017-06-18T06:41:54.094Z,90.40
2017-06-18T06:44:21.627Z,89.70
2017-06-18T06:46:49.202Z,88.00
2017-06-18T06:49:16.732Z,85.50
2017-06-18T06:51:44.277Z,84.60
2017-06-18T06:54:12.605Z,80.70
2017-06-18T06:56:40.136Z,80.70
2017-06-18T06:59:07.679Z,77.80
2017-06-18T07:01:36.013Z,75.80
2017-06-18T07:04:03.550Z,75.80
2017-06-18T07:06:31.094Z,76.30
2017-06-18T07:08:58.668Z,75.20
2017-06-18T07:11:26.197Z,74.90
2017-06-18T07:13:53.718Z,78.10
2017-06-18T07:16:21.534Z,77.70
2017-06-18T07:18:49.078Z,77.00
2017-06-18T07:21:16.600Z,75.60
2017-06-18T07:23:44.191Z,74.20
2017-06-18T07:26:11.715Z,73.20
2017-06-18T07:28:39.273Z,72.50
2017-06-18T07:31:06.843Z,72.70
2017-06-18T07:33:34.393Z,71.00
2017-06-18T07:36:01.935Z,70.10
2017-06-18T07:38:29.551Z,71.20
2017-06-18T07:40:57.072Z,67.50
2017-06-18T07:43:24.597Z,67.50
2017-06-18T07:45:52.145Z,69.40
2017-06-18T07:48:19.757Z,69.50
2017-06-18T07:50:47.379Z,68.10
2017-06-18T07:53:15.227Z,65.90
2017-06-18T07:55:42.789Z,65.20
2017-06-18T07:58:10.396Z,68.30
2017-06-18T08:00:38.042Z,69.00
2017-06-18T08:03:05.949Z,66.90
2017-06-18T08:05:33.507Z,66.30
2017-06-18T08:08:01.123Z,63.80
2017-06-18T08:10:28.753Z,63.90
2017-06-18T08:12:56.356Z,66.60
2017-06-18T08:15:24.256Z,65.70
2017-06-18T08:17:51.858Z,64.20
2017-06-18T08:20:19.385Z,63.80
2017-06-18T08:22:46.947Z,64.80
2017-06-18T08:25:15.342Z,66.00
2017-06-18T08:27:42.899Z,65.80
2017-06-18T08:30:10.462Z,66.80
2017-06-18T08:32:38.105Z,67.70
2017-06-18T08:35:05.637Z,70.20
2017-06-18T08:37:33.192Z,73.70
2017-06-18T08:40:00.750Z,75.20
2017-06-18T08:42:28.308Z,74.10
2017-06-18T08:44:55.860Z,75.10
2017-06-18T08:47:23.403Z,76.40
2017-06-18T08:49:50.937Z,75.70
2017-06-18T08:52:18.510Z,71.90
2017-06-18T08:54:46.052Z,70.00
2017-06-18T08:57:13.620Z,70.00
2017-06-18T08:59:41.189Z,70.70
2017-06-18T09:02:08.724Z,71.80
2017-06-18T09:04:36.286Z,71.30
2017-06-18T09:07:04.262Z,69.80
2017-06-18T09:09:31.833Z,71.70
2017-06-18T09:11:59.373Z,71.70
2017-06-18T09:14:27.187Z,73.40
2017-06-18T09:16:54.764Z,73.30
2017-06-18T09:19:22.322Z,72.30
2017-06-18T09:21:50.185Z,71.90
2017-06-18T09:24:18.516Z,71.20
2017-06-18T09:26:46.059Z,71.20
2017-06-18T09:29:13.985Z,70.40
2017-06-18T09:31:41.548Z,70.10
2017-06-18T09:34:09.119Z,66.50
2017-06-18T09:36:37.474Z,68.20
2017-06-18T09:39:05.124Z,68.40
2017-06-18T09:41:32.657Z,68.80
2017-06-18T09:44:00.216Z,67.50
2017-06-18T09:46:27.746Z,66.90
2017-06-18T09:48:55.297Z,68.10
2017-06-18T09:51:23.207Z,66.00
2017-06-18T09:53:50.731Z,64.40
2017-06-18T09:56:18.253Z,64.40
2017-06-18T09:58:45.872Z,63.50
2017-06-18T10:01:13.433Z,61.20
2017-06-18T10:03:40.965Z,60.20
2017-06-18T10:06:08.542Z,62.50
2017-06-18T10:08:36.079Z,62.10
2017-06-18T10:11:03.601Z,61.00
2017-06-18T10:13:31.423Z,61.30
2017-06-18T10:15:58.957Z,60.80
2017-06-18T10:18:26.517Z,61.10
2017-06-18T10:20:54.155Z,61.30
2017-06-18T10:23:27.346Z,63.80
2017-06-18T10:25:55.015Z,61.80
2017-06-18T10:28:22.576Z,61.00
2017-06-18T10:30:50.516Z,61.60
2017-06-18T10:33:18.064Z,62.80
2017-06-18T10:35:45.648Z,62.20
2017-06-18T10:38:14.177Z,62.80
2017-06-18T10:40:41.728Z,63.00
2017-06-18T10:43:09.357Z,64.20
2017-06-18T10:45:36.977Z,63.40
2017-06-18T10:48:04.595Z,62.70
2017-06-18T10:50:32.214Z,61.50
2017-06-18T10:52:59.851Z,60.50
2017-06-18T10:55:27.450Z,60.60
2017-06-18T10:57:55.056Z,59.80
2017-06-18T11:00:22.741Z,62.90
2017-06-18T11:02:50.342Z,63.40
2017-06-18T11:05:17.977Z,62.70
2017-06-18T11:07:45.518Z,62.90
2017-06-18T11:10:13.045Z,62.70
2017-06-18T11:12:40.613Z,62.80
2017-06-18T11:15:08.257Z,61.20
2017-06-18T11:17:35.779Z,59.30
2017-06-18T11:20:03.340Z,60.00
2017-06-18T11:22:30.872Z,60.30
2017-06-18T11:24:58.404Z,61.50
2017-06-18T11:27:25.972Z,61.00
2017-06-18T11:29:53.577Z,62.50
2017-06-18T11:32:21.118Z,62.00
2017-06-18T11:34:48.687Z,61.20
2017-06-18T11:37:16.582Z,62.40
2017-06-18T11:39:44.095Z,62.90
2017-06-18T11:42:11.623Z,63.10
2017-06-18T11:44:39.210Z,63.60
2017-06-18T11:47:06.789Z,63.60
2017-06-18T11:49:34.408Z,63.20
2017-06-18T11:52:01.988Z,64.80
2017-06-18T11:54:29.611Z,64.60
2017-06-18T11:56:57.138Z,64.40
2017-06-18T11:59:24.768Z,63.20
2017-06-18T12:01:52.354Z,62.60
2017-06-18T12:04:19.904Z,62.10
2017-06-18T12:06:47.498Z,63.70
2017-06-18T12:09:15.032Z,60.40
2017-06-18T12:11:42.638Z,60.60
2017-06-18T12:14:10.890Z,60.00
2017-06-18T12:16:38.413Z,61.10
2017-06-18T12:19:06.006Z,58.60
2017-06-18T12:21:33.627Z,58.60
2017-06-18T12:24:01.182Z,58.90
2017-06-18T12:26:28.817Z,58.10
2017-06-18T12:28:56.565Z,58.00
2017-06-18T12:31:24.180Z,59.60
2017-06-18T12:33:52.040Z,58.10
2017-06-18T12:36:19.774Z,57.90
2017-06-18T12:38:47.429Z,57.60
2017-06-18T12:41:15.026Z,59.20
2017-06-18T12:43:42.883Z,58.40
2017-06-18T12:46:10.426Z,56.10
2017-06-18T12:48:38.001Z,56.30
2017-06-18T12:51:05.874Z,55.30
2017-06-18T12:53:33.431Z,58.00
2017-06-18T12:56:00.972Z,53.20
2017-06-18T12:58:28.840Z,50.60
2017-06-18T13:00:56.438Z,50.30
2017-06-18T13:03:23.987Z,48.50
2017-06-18T13:05:51.580Z,46.50
2017-06-18T13:08:19.126Z,47.90
2017-06-18T13:10:46.751Z,48.80
2017-06-18T13:13:14.603Z,46.70
2017-06-18T13:15:42.166Z,48.80
2017-06-18T13:18:09.729Z,50.90
2017-06-18T13:20:37.549Z,50.20
2017-06-18T13:23:05.061Z,51.60
2017-06-18T13:25:32.626Z,49.10
2017-06-18T13:28:00.465Z,46.40
2017-06-18T13:30:28.050Z,48.50
2017-06-18T13:32:55.598Z,49.90
2017-06-18T13:35:23.174Z,51.50
2017-06-18T13:37:50.790Z,49.40
2017-06-18T13:40:18.348Z,49.20
2017-06-18T13:42:46.096Z,49.90
2017-06-18T13:45:13.638Z,45.10
2017-06-18T13:47:41.217Z,45.30
2017-06-18T13:50:09.145Z,46.90
2017-06-18T13:52:36.677Z,50.40
2017-06-18T13:55:04.253Z,50.70
2017-06-18T13:57:31.853Z,49.30
2017-06-18T13:59:59.402Z,48.20
2017-06-18T14:02:26.993Z,46.10
2017-06-18T14:04:54.573Z,45.90
2017-06-18T14:07:22.190Z,44.00
2017-06-18T14:09:49.738Z,42.40
2017-06-18T14:12:17.571Z,40.10
2017-06-18T14:14:45.120Z,41.70
2017-06-18T14:17:12.684Z,42.00
2017-06-18T14:19:40.269Z,43.80
2017-06-18T14:22:07.852Z,43.70
2017-06-18T14:24:35.395Z,41.40
2017-06-18T14:27:02.995Z,41.40
2017-06-18T14:29:30.623Z,41.40
2017-06-18T14:31:58.178Z,41.80
2017-06-18T14:34:25.779Z,42.70
2017-06-18T14:36:53.359Z,41.40
2017-06-18T14:39:20.940Z,42.60
2017-06-18T14:41:48.532Z,44.30
2017-06-18T14:44:16.083Z,43.90
2017-06-18T14:46:43.650Z,42.60
2017-06-18T14:49:11.222Z,41.70
2017-06-18T14:51:38.786Z,41.60
2017-06-18T14:54:06.355Z,42.10
2017-06-18T14:56:34.287Z,42.80
2017-06-18T14:59:01.831Z,43.30
2017-06-18T15:01:29.448Z,42.90
2017-06-18T15:03:57.350Z,41.70
2017-06-18T15:06:24.934Z,39.80
2017-06-18T15:08:52.498Z,39.00
2017-06-18T15:11:20.082Z,39.80
2017-06-18T15:13:47.602Z,40.40
2017-06-18T15:16:15.258Z,42.40
2017-06-18T15:18:43.115Z,41.40
2017-06-18T15:21:10.703Z,43.20
2017-06-18T15:23:38.241Z,43.10
2017-06-18T15:26:05.840Z,42.60
2017-06-18T15:28:33.390Z,43.20
2017-06-18T15:31:00.953Z,43.50
2017-06-18T15:33:28.613Z,42.90
2017-06-18T15:35:56.149Z,41.20
2017-06-18T15:38:24.011Z,42.80
2017-06-18T15:40:51.626Z,42.60
2017-06-18T15:43:19.163Z,43.50
2017-06-18T15:45:46.745Z,45.40
2017-06-18T15:48:14.270Z,43.20
2017-06-18T15:50:41.858Z,42.60
2017-06-18T15:53:09.447Z,42.20
2017-06-18T15:55:37.014Z,41.20
2017-06-18T15:58:04.560Z,43.20
2017-06-18T16:00:32.137Z,44.60
2017-06-18T16:02:59.748Z,45.50
2017-06-18T16:05:27.365Z,43.20
2017-06-18T16:07:56.136Z,41.20
2017-06-18T16:10:23.778Z,41.50
2017-06-18T16:12:51.354Z,42.10
2017-06-18T16:15:19.142Z,43.00
2017-06-18T16:17:46.792Z,43.00
2017-06-18T16:20:14.385Z,40.70
2017-06-18T16:22:42.949Z,41.70
2017-06-18T16:25:10.554Z,43.00
2017-06-18T16:27:38.081Z,43.20
2017-06-18T16:30:05.642Z,43.40
2017-06-18T16:32:33.469Z,42.40
2017-06-18T16:35:01.041Z,40.90
2017-06-18T16:37:28.663Z,40.70
2017-06-18T16:39:56.526Z,40.90
2017-06-18T16:42:24.164Z,41.30
2017-06-18T16:44:51.753Z,41.00
2017-06-18T16:47:19.311Z,42.30
2017-06-18T16:49:46.880Z,43.00
2017-06-18T16:52:14.467Z,44.20
2017-06-18T16:54:42.018Z,44.60
2017-06-18T16:57:09.625Z,46.10
2017-06-18T16:59:37.486Z,47.50
2017-06-18T17:02:05.060Z,45.10
2017-06-18T17:04:32.606Z,44.30
2017-06-18T17:07:00.264Z,42.10
2017-06-18T17:09:27.831Z,43.20
2017-06-18T17:11:55.371Z,41.90
2017-06-18T17:14:22.984Z,41.70
2017-06-18T17:16:50.524Z,41.40
2017-06-18T17:19:18.131Z,40.70
2017-06-18T17:21:51.272Z,40.50
2017-06-18T17:24:18.843Z,41.70
2017-06-18T17:26:46.493Z,44.00
2017-06-18T17:29:14.310Z,45.40
2017-06-18T17:31:41.923Z,46.30
2017-06-18T17:34:09.479Z,48.20
2017-06-18T17:36:42.613Z,48.40
2017-06-18T17:39:10.549Z,49.10
2017-06-18T17:41:38.515Z,51.00
2017-06-18T17:44:06.417Z,52.30
2017-06-18T17:46:34.044Z,51.50
2017-06-18T17:49:02.144Z,51.60
2017-06-18T17:51:30.148Z,51.80
2017-06-18T17:53:57.679Z,51.50
2017-06-18T17:56:25.270Z,52.30
2017-06-18T17:58:53.098Z,52.40
2017-06-18T18:01:20.766Z,52.30
2017-06-18T18:03:49.286Z,52.40
2017-06-18T18:06:16.833Z,53.00
2017-06-18T18:08:47.057Z,53.80
2017-06-18T18:11:14.700Z,53.80
2017-06-18T18:13:42.229Z,54.10
2017-06-18T18:16:09.799Z,54.10
2017-06-18T18:18:37.323Z,54.00
2017-06-18T18:21:11.477Z,54.10
2017-06-18T18:23:39.019Z,53.50
2017-06-18T18:26:06.575Z,54.00
2017-06-18T18:28:34.121Z,54.20
2017-06-18T18:31:01.698Z,54.50
2017-06-18T18:33:29.498Z,54.80
2017-06-18T18:35:57.826Z,54.50
2017-06-18T18:38:25.365Z,54.30
2017-06-18T18:40:52.891Z,54.80
2017-06-18T18:43:20.728Z,55.10
2017-06-18T18:45:48.286Z,55.20
2017-06-18T18:48:15.814Z,55.50
2017-06-18T18:50:43.594Z,55.80
2017-06-18T18:53:14.921Z,55.50
2017-06-18T18:55:44.898Z,56.00
2017-06-18T18:58:12.805Z,56.40
2017-06-18T19:00:40.950Z,56.40
2017-06-18T19:03:10.252Z,56.60
2017-06-18T19:05:38.763Z,57.00
2017-06-18T19:08:06.456Z,56.90
2017-06-18T19:10:34.181Z,56.60
2017-06-18T19:13:02.926Z,56.20
2017-06-18T19:15:31.417Z,56.30
2017-06-18T19:17:59.137Z,56.20
2017-06-18T19:20:26.734Z,56.40
2017-06-18T19:22:56.014Z,56.60
2017-06-18T19:25:25.238Z,58.10
2017-06-18T19:27:53.122Z,57.90
2017-06-18T19:30:20.926Z,58.40
2017-06-18T19:32:49.027Z,58.40
2017-06-18T19:35:17.035Z,59.50
2017-06-18T19:37:44.657Z,60.00
2017-06-18T19:40:13.210Z,59.90
2017-06-18T19:42:40.818Z,59.80
2017-06-18T19:45:09.180Z,61.40
2017-06-18T19:47:37.468Z,61.30
2017-06-18T19:50:05.065Z,62.10
2017-06-18T19:52:32.614Z,62.20
2017-06-18T19:55:00.415Z,62.40
2017-06-18T19:57:27.963Z,63.00
2017-06-18T19:59:55.530Z,64.00
2017-06-18T20:02:23.084Z,64.30
2017-06-18T20:04:50.701Z,64.40
2017-06-18T20:07:18.278Z,64.60
2017-06-18T20:09:47.359Z,66.00
2017-06-18T20:12:14.969Z,65.80
2017-06-18T20:14:44.111Z,66.10
2017-06-18T20:17:15.245Z,66.60
2017-06-18T20:19:42.991Z,66.90
2017-06-18T20:22:11.788Z,68.20
2017-06-18T20:24:40.129Z,68.20
2017-06-18T20:27:07.884Z,68.90
2017-06-18T20:29:35.477Z,69.30
2017-06-18T20:32:03.053Z,69.80
2017-06-18T20:34:30.579Z,70.20
2017-06-18T20:36:58.717Z,70.80
2017-06-18T20:39:26.291Z,71.60
2017-06-18T20:41:53.831Z,72.20
2017-06-18T20:44:21.366Z,72.50
2017-06-18T20:46:48.950Z,73.50
2017-06-18T20:49:16.570Z,74.00
2017-06-18T20:51:44.103Z,74.80
2017-06-18T20:54:11.712Z,75.50
2017-06-18T20:56:39.251Z,76.10
2017-06-18T20:59:07.576Z,78.80
2017-06-18T21:01:35.429Z,78.30
2017-06-18T21:04:02.973Z,79.30
2017-06-18T21:06:30.522Z,79.90
2017-06-18T21:08:58.105Z,80.40
2017-06-18T21:11:25.634Z,80.70
2017-06-18T21:13:53.275Z,81.00
2017-06-18T21:16:20.824Z,81.00
2017-06-18T21:18:48.381Z,81.10
2017-06-18T21:21:15.930Z,81.10
2017-06-18T21:23:43.487Z,81.00
2017-06-18T21:26:11.320Z,80.70
2017-06-18T21:28:38.984Z,80.70
2017-06-18T21:31:06.673Z,81.20
2017-06-18T21:33:34.281Z,80.90
2017-06-18T21:36:01.837Z,81.20
2017-06-18T21:38:29.397Z,81.20
2017-06-18T21:40:56.957Z,81.10
2017-06-18T21:43:24.498Z,81.80
2017-06-18T21:45:52.046Z,82.10
2017-06-18T21:48:19.563Z,82.00
2017-06-18T21:50:47.086Z,82.00
2017-06-18T21:53:15.096Z,82.20
2017-06-18T21:55:42.628Z,82.30
2017-06-18T21:58:10.159Z,83.00
2017-06-18T22:00:37.704Z,83.30
2017-06-18T22:03:05.228Z,83.70
2017-06-18T22:05:32.739Z,83.90
2017-06-18T22:08:00.312Z,84.70
2017-06-18T22:10:27.834Z,85.70
2017-06-18T22:12:55.356Z,86.50
2017-06-18T22:15:23.684Z,88.20
2017-06-18T22:17:51.240Z,88.10
2017-06-18T22:20:18.786Z,88.70
2017-06-18T22:22:46.396Z,89.50
2017-06-18T22:25:13.923Z,90.00
2017-06-18T22:27:41.441Z,89.80
2017-06-18T22:30:08.975Z,90.00
2017-06-18T22:32:36.491Z,90.10
2017-06-18T22:35:04.015Z,90.80
2017-06-18T22:37:31.578Z,90.60
2017-06-18T22:39:59.088Z,90.60
2017-06-18T22:42:26.608Z,90.70
2017-06-18T22:44:54.149Z,90.50
2017-06-18T22:47:21.668Z,90.50
2017-06-18T22:49:50.000Z,90.60
2017-06-18T22:52:17.563Z,90.70
2017-06-18T22:54:45.091Z,90.90
2017-06-18T22:57:12.610Z,90.70
2017-06-18T22:59:40.163Z,90.70
2017-06-18T23:02:07.683Z,90.70
2017-06-18T23:04:35.199Z,90.70
2017-06-18T23:07:02.756Z,90.70
2017-06-18T23:09:30.272Z,91.00
2017-06-18T23:11:57.791Z,91.20
2017-06-18T23:14:26.396Z,91.60
2017-06-18T23:16:53.926Z,91.30
2017-06-18T23:19:21.434Z,91.20
2017-06-18T23:21:48.989Z,91.20
2017-06-18T23:24:16.493Z,91.30
2017-06-18T23:26:44.023Z,91.30
2017-06-18T23:29:11.576Z,91.10
2017-06-18T23:31:39.103Z,91.00
2017-06-18T23:34:07.379Z,91.30
2017-06-18T23:36:36.059Z,91.50
2017-06-18T23:39:04.330Z,91.60
2017-06-18T23:41:32.619Z,91.90
2017-06-18T23:44:00.427Z,91.90
2017-06-18T23:46:27.956Z,92.00
2017-06-18T23:48:55.490Z,92.20
2017-06-18T23:51:23.038Z,92.00
2017-06-18T23:53:50.554Z,92.00
2017-06-18T23:56:18.068Z,91.80
2017-06-18T23:58:45.868Z,92.20
